Accueil
METAR-TAF:

METAR-TAF

Aéroports :

Aéroport de Santorin

Santorin, Grèce

latitude: 36-24N, longitude: 025-29E, altitude: 38 m

Observation

Le bulletin a été fait il y a 39 minutes, à 22:50 UTC
Vent calme
Température 22°C
Humidité 83%
Pression 1014 hPa
Visibilité 10 km ou plus
pas de nuages en-dessous de 1500 mètres et pas de cumulonimbus.

METAR: LGSR 212250Z 00000KT CAVOK 22/19 Q1014

Heure: 02:29 (23:29 UTC)

Prévision

Le bulletin a été fait il y a 6 heures et 29 minutes, à 17:00 UTC
Prévision valable du 21 à 18 UTC au 22 à 18 UTC
Vent 12 kt de ouest/nord-ouest
Visibilité 10 km ou plus
Quelques nuages à une hauteur de 2000 ft
Evoluant progressivement
du 22 à 06 UTC au 22 à 08 UTC
Vent 15 kt de ouest avec des rafales jusqu'à 25 kt

TAF: LGSR 211700Z 2118/2218 29012KT 9999 FEW020 BECMG 2206/2208 27015G25KT

Observations et prévisions météorologiques de plus de 4000 aéroports (messages METAR et TAF).

Les stations disponibles sont représentées par des disques jaunes et rouges sur la carte.

Passer la souris dessus pour voir le nom de la station.

Cliquer dessus pour voir les observations et prévisions météorologiques.

Pour changer de carte: cliquez sur les boutons verts avec une croix noire pour zoomer, sur le bouton vert avec un tiret pour effectuer un zoom arrière, ou sur les flèches vertes pour les cartes adjacentes.


METAR-TAF: